Select your language:
Crown of King Zvonimir race, Solin CRO   Hier könnte ihre Werbung stehen!  
  Cat.:   Nazione:   Velocità:   Tipo della categoria:   
Data: 22.08.2025 Send Link
Manifestazione: 4° Canajagua Ultra Trail (PAN) Maggiori dettagli sulla corsa.
Distanza: 55km cross, trail Classifica tutti i tempi per questa corsa.
arrivati: 67 (53 M, 14 F) Multiple Finishers.
Parte della classifica: No
Lista dei risultati di: link (Fonte al momento dell'acquisizione.)
Inviato da: Chang, Wenhui     08.05.2026 13:41
 
67 risultati della ricerca 
Pos. Prestazione Cognome, nome Società Naz. Anno M/F Pos. sesso Cat. Pos. Cat. Velocità km/h Prestazione corretto per età
1 6:24:11 h   Cedeno Gonzalez, Jose Euribiades   PAN  1992 M 1 M23  1 8.590 6:24:07 h
2 6:36:42 h   Gutierrez, Francisco   CHI  1983 M 2 M40  1 8.319 6:21:45 h
3 6:44:34 h   Varcasia, Jose   ITA  1986 M 3 M35  1 8.157 6:37:18 h
4 6:59:04 h   Pastor Ramos Herrera, Justo   PAN  1994 M 4 M23  2 7.875 6:59:04 h
5 7:35:57 h   Bontemps, Damien   FRA  1986 M 5 M35  2 7.238 7:27:45 h
6 7:37:34 h   Rodriguez, Diana   PAN  1983 F 1 W40  1 7.212 7:23:56 h
7 7:52:47 h   Baccarani, Gabriella   PAN  1989 F 2 W35  1 6.980 7:50:57 h
8 7:53:52 h   Coronado, Maickol   PAN  1983 M 6 M40  2 6.964 7:36:01 h
9 7:59:52 h   Labella, Rodrigo   ARG  1988 M 7 M35  3 6.877 7:55:36 h
10 8:15:57 h   Emmanuel Lopez, Rodrigo   PAN  1985 M 8 M35  4 6.654 8:04:09 h
11 8:17:04 h   Alberto Zuniga Escobar, Carlos   PAN  2001 M 9 M23  3 6.639 8:17:04 h
12 8:22:08 h   Chiari, Alfredo   PAN  1995 M 10 M23  4 6.572 8:22:08 h
13 8:23:51 h   Mata, Cristina   PAN  1986 F 3 W35  2 6.550 8:16:54 h
14 8:43:49 h   Mandarakas, Chemi   PAN  1972 M 11 M50  1 6.300 7:39:14 h
15 8:47:58 h   Gil, Adin   PAN  1994 M 12 M23  5 6.250 8:47:58 h
16 8:50:56 h   Angel Baules, Jose   PAN  1979 M 13 M45  1 6.215 8:14:22 h
17 8:58:53 h   de la Rosa Lasa, David Enrique   PAN  1999 M 14 M23  6 6.124 8:58:53 h
18 9:01:21 h   Pomares, Crescencio   PAN  1993 M 15 M23  7 6.096 9:01:21 h
19 9:09:34 h   McPherson, Guillermo   PAN  1997 M 16 M23  8 6.005 9:09:34 h
20 9:10:57 h   Dominguez Gonzalez, Evaristo Javier   PAN  1969 M 17 M55  1 5.990 7:50:08 h
21 9:11:02 h   Lasa, Ignacio   PAN  1972 M 18 M50  2 5.989 8:03:06 h
22 9:12:53 h   Bontemps, Johnny   USA  1984 M 19 M40  3 5.969 8:56:05 h
23 9:14:33 h   Lucia Arciniegas, Ana   PAN  1994 F 4 W23  1 5.951 9:14:33 h
24 9:20:51 h   Escudero, Ivan   PAN  1976 M 20 M45  2 5.884 8:29:09 h
25 9:24:41 h   Lemma, Emmanuel   ARG  1983 M 21 M40  4 5.844 9:03:24 h
26 9:31:04 h   Vergara, Joseph   PAN  1997 M 22 M23  9 5.779 9:31:04 h
27 9:42:44 h   Reyes, Jefferson   PAN  1999 M 23 M23  10 5.663 9:42:44 h
28 9:45:32 h   Caballero, Rodrigo   PAN  1993 M 24 M23  11 5.636 9:45:32 h
29 9:51:58 h   Gonzalez Macias, Alexander   PAN  1991 M 25 M23  12 5.575 9:51:16 h
30 9:53:28 h   de la Cruz, Ezequiel Enrique   PAN  1986 M 26 M35  5 5.561 9:42:48 h
31 10:04:55 h   Vegas, Pedro   VEN  1980 M 27 M40  5 5.455 9:27:58 h
32 10:07:30 h   Cordon, Mario   PAN  1985 M 28 M35  6 5.432 9:53:03 h
33 10:08:39 h   Barria, Angel   PAN  1991 M 29 M23  13 5.422 10:07:56 h
34 10:10:46 h   Cabassa, Pia Gabriela   PAN  1993 F 5 W23  2 5.403 10:10:46 h
35 10:11:34 h   Morales, Henry   PAN  1977 M 30 M45  3 5.396 9:19:58 h
36 10:14:07 h   Vega, Franklin   PAN  1979 M 31 M45  4 5.374 9:31:49 h
37 10:22:00 h   Bennett, Irving   PAN  1961 M 32 M60  1 5.305 8:12:04 h
38 10:22:57 h   Lorenzo Avila, Juan David   PAN  1990 M 33 M23  14 5.297 10:21:09 h
39 10:25:03 h   Smith, Francisco   PAN  1985 M 34 M35  7 5.280 10:10:11 h
40 10:30:02 h   Diaz, Jorge   PAN  1975 M 35 M45  5 5.238 9:27:02 h
41 10:33:12 h   Yerel Nunez, Ramses   PAN  1992 M 36 M23  15 5.212 10:33:05 h
42 10:48:17 h   Luis Binda, Jose   PAN  1978 M 37 M45  6 5.090 9:58:38 h
43 10:49:40 h   Garcia Dominguez, Felipe   PAN  1971 M 38 M50  3 5.080 9:24:30 h
44 10:49:41 h   Rincon, Christopher   PAN  1985 M 39 M35  8 5.079 10:34:14 h
45 10:52:20 h   Quintero, Danny   PAN  1973 M 40 M50  4 5.059 9:37:00 h
46 10:52:50 h   Londono Salinas, Alexandra   PAN  1989 F 6 W35  3 5.055 10:48:36 h
47 10:53:04 h   Puga Espino, Carlos Alberto   PAN  1977 M 41 M45  7 5.053 9:57:57 h
48 10:53:33 h   Chuljak, Carlos   PAN  1993 M 42 M23  16 5.049 10:53:33 h
49 10:53:41 h   Madrid, Sileska   PAN  1981 F 7 W40  2 5.048 10:25:04 h
50 10:57:16 h   Montecer, Manuel   PAN  1971 M 43 M50  5 5.021 9:31:06 h
51 11:05:02 h   Pitti Ortiz, Maximo   PAN  1977 M 44 M45  8 4.962 10:08:55 h
52 11:09:18 h   Gonzalez, Leython   PAN  1997 M 45 M23  17 4.931 11:09:18 h
53 11:10:36 h   Caez Rivera, Sara   PUR  1975 F 8 W45  1 4.921 10:02:20 h
54 11:34:33 h   Rodriguez Rivas, Fidel   PAN  1981 M 46 M40  6 4.751 10:57:32 h
55 11:43:26 h   Ortega, Katherine   PAN  1989 F 9 W35  4 4.691 11:40:42 h
56 11:43:35 h   Machado, Adrian   PAN  1990 M 47 M23  18 4.690 11:41:33 h
57 11:43:37 h   Paola Hernandez Rojas, Jenny   COL  1987 F 10 W35  5 4.690 11:36:44 h
58 11:45:27 h   Perez, Apsalon   PAN  1999 M 48 M23  19 4.678 11:45:27 h
59 11:45:43 h   Ibanez, Hernando   PAN  1973 M 49 M50  6 4.676 10:24:13 h
60 11:45:50 h   Gonzalez, Sarah   PAN  1987 F 11 W35  6 4.675 11:38:55 h
61 11:46:00 h   Martinez, Raquel   PAN  1982 F 12 W40  3 4.674 11:20:14 h
62 11:46:12 h   Con, Luis   PAN  2001 M 50 M23  20 4.673 11:46:12 h
63 12:23:11 h   Rojas, Gisela Tamara   PAN  1970 F 13 W50  1 4.440 10:26:26 h
64 12:24:00 h   Aizprua, Jocelyn   PAN  1989 F 14 W35  7 4.435 12:21:06 h
65 12:55:00 h   Vasquez, Augusto   PAN  1998 M 51 M23  21 4.258 12:55:00 h
66 13:03:00 h   Atehortua, Shoshann   PAN  1984 M 52 M40  7 4.215 12:39:12 h
67 13:03:02 h   Frias, David   PAN  1993 M 53 M23  22 4.214 13:03:02 h